Ana Sayfa
METAR-TAF:

METAR-TAF

Havaalanları :

Nadi, Fiji

Enlem: 17-45S, Boylam: 177-27E, yükseklik: 13 m

Güncel hava durumu gözlemi

Rapor saat 14:00 UTC de 23 dakika önce yapıldı.
Rüzgar kuzeydoğudan 3 kt
Sıcaklık 23°C
Nem 89%
Basınç 1013 hPa
Görüş mesafesi 10 km veya daha fazla
2500 ft yükseklikte parçalı bulutlu
4800 ft yükseklikte parçalı bulutlu

METAR: NFFN 221400Z 04003KT 9999 SCT025 SCT048 23/21 Q1013 NOSIG

Saat: 02:23 (14:23 UTC)

Tahmin

Rapor saat 11:11 UTC de 3 saat ve 12 dakika önce yapıldı.
Ayın 22'si saat 12 UTC'den ayın 23'si saat 12 UTC'ye kadar geçerli Tahmin
Rüzgar değişken yönden 3 kt
Görüş mesafesi 10 km veya daha fazla
2500 ft yükseklikte parçalı bulutlu
Dönüşüyor
ayın 22'si saat 21 UTC'den ayın 22'si saat 23 UTC'ye kadar
Rüzgar batıdan 10 kt

TAF: NFFN 221111Z 2212/2312 VRB03KT 9999 SCT025 BECMG 2221/2223 27010KT

4.000'den fazla havaalanı için hava durumu gözlemleri ve tahminleri (METAR ve TAF raporları).

Kullanılabilir istasyonlar harita üzerinde sarı ve kırmızı noktalarla gösterilir.

İstasyonun adını görmek için fareyi noktanın üzerinde gezdirin.

Sonrasında hava gözlem ve tahminlerini görmek için tıklayın.

Haritayı değiştirmek için: yaklaştırmak için siyah artı işaretli yeşil düğmeye ve uzaklaştırmak için de eksi işaretli düğmeye hızla tıklayın; bitişik haritalar için yeşil okları kullanın.


METAR-TAF: